Time;durP1;ratioP1;P1;durP2;ratioP2;P2;SDS_P1;SDS_P2;PMS_P1;PMS_P2;Temp;Humidity;BMP_temperature;BMP_pressure;BME280_temperature;BME280_humidity;BME280_pressure;Samples;Min_cycle;Max_cycle;Signal;HPM_P1;HPM_P2
2021/01/22 00:00:22;;;;;;;9.82;1.20;;;;;;;;;;5004647;28;20073;-81
2021/01/22 00:02:49;;;;;;;3.30;0.90;;;;;;;;;;4997168;28;20042;-82
2021/01/22 00:05:17;;;;;;;3.50;0.77;;;;;;;;;;5009470;28;20079;-81
2021/01/22 00:07:48;;;;;;;2.42;0.82;;;;;;;;;;5007830;28;20136;-81
2021/01/22 00:10:17;;;;;;;3.33;0.95;;;;;;;;;;5001734;28;20133;-81
2021/01/22 00:12:44;;;;;;;4.40;0.90;;;;;;;;;;5008042;28;20560;-81
2021/01/22 00:15:14;;;;;;;7.13;1.05;;;;;;;;;;5002167;28;20694;-81
2021/01/22 00:17:41;;;;;;;3.30;1.02;;;;;;;;;;5001589;28;20492;-81
2021/01/22 00:20:08;;;;;;;3.42;0.80;;;;;;;;;;5001007;28;20700;-80
2021/01/22 00:22:42;;;;;;;6.60;1.00;;;;;;;;;;5001417;28;20050;-80
2021/01/22 00:25:09;;;;;;;3.15;0.80;;;;;;;;;;5000973;28;20058;-80
2021/01/22 00:27:35;;;;;;;1.63;0.70;;;;;;;;;;5005520;28;20120;-80
2021/01/22 00:30:04;;;;;;;5.75;0.80;;;;;;;;;;4994447;28;20554;-81
2021/01/22 00:32:32;;;;;;;6.60;1.13;;;;;;;;;;4987723;28;20061;-80
2021/01/22 00:35:00;;;;;;;5.70;0.90;;;;;;;;;;4998592;28;20479;-80
2021/01/22 00:37:27;;;;;;;2.35;1.27;;;;;;;;;;4994606;28;20054;-81
2021/01/22 00:39:55;;;;;;;5.25;1.25;;;;;;;;;;5008404;28;20124;-81
2021/01/22 00:42:22;;;;;;;4.88;1.45;;;;;;;;;;5000228;28;20105;-81
2021/01/22 00:44:49;;;;;;;5.72;1.20;;;;;;;;;;5000244;28;20193;-81
2021/01/22 00:47:15;;;;;;;3.08;1.10;;;;;;;;;;4993192;28;20043;-81
2021/01/22 00:49:43;;;;;;;4.93;1.50;;;;;;;;;;5000752;28;20049;-81
2021/01/22 00:52:10;;;;;;;4.72;1.38;;;;;;;;;;4999548;28;20482;-81
2021/01/22 00:54:38;;;;;;;3.63;1.40;;;;;;;;;;5000989;28;20126;-81
2021/01/22 00:57:08;;;;;;;9.18;1.33;;;;;;;;;;5002618;28;20104;-80
2021/01/22 00:59:34;;;;;;;3.15;1.52;;;;;;;;;;4998385;28;20057;-81
2021/01/22 01:02:15;;;;;;;2.75;1.30;;;;;;;;;;5000754;28;20052;-81
2021/01/22 01:04:42;;;;;;;6.07;1.48;;;;;;;;;;4999327;28;20041;-81
2021/01/22 01:07:11;;;;;;;4.32;1.30;;;;;;;;;;4994152;28;20077;-81
2021/01/22 01:09:40;;;;;;;7.03;1.38;;;;;;;;;;5003513;28;20057;-81
2021/01/22 01:12:07;;;;;;;4.25;1.48;;;;;;;;;;5005577;28;20137;-81
2021/01/22 01:14:34;;;;;;;3.88;1.30;;;;;;;;;;5000366;28;20084;-80
2021/01/22 01:17:02;;;;;;;11.90;1.75;;;;;;;;;;5005415;28;20050;-81
2021/01/22 01:19:29;;;;;;;4.97;1.88;;;;;;;;;;5003717;28;20120;-80
2021/01/22 01:21:55;;;;;;;4.07;1.67;;;;;;;;;;5011843;28;20073;-82
2021/01/22 01:24:22;;;;;;;6.03;1.88;;;;;;;;;;5004145;28;20070;-81
2021/01/22 01:26:49;;;;;;;6.20;1.92;;;;;;;;;;5004067;28;20112;-81
2021/01/22 01:29:28;;;;;;;3.25;1.70;;;;;;;;;;5002526;28;20784;-81
2021/01/22 01:31:55;;;;;;;7.93;2.33;;;;;;;;;;5003487;28;20100;-81
2021/01/22 01:34:22;;;;;;;11.20;2.92;;;;;;;;;;5003843;28;20137;-81
2021/01/22 01:36:48;;;;;;;6.90;2.15;;;;;;;;;;4996107;28;20066;-81
2021/01/22 01:39:15;;;;;;;7.22;2.20;;;;;;;;;;5006501;28;20506;-82
2021/01/22 01:41:42;;;;;;;6.18;2.38;;;;;;;;;;5000581;28;20093;-82
2021/01/22 01:44:11;;;;;;;6.40;2.25;;;;;;;;;;4999940;28;20149;-81
2021/01/22 01:46:38;;;;;;;4.03;2.22;;;;;;;;;;5007411;28;20636;-81
2021/01/22 01:49:05;;;;;;;6.30;2.38;;;;;;;;;;5005621;28;20049;-81
2021/01/22 01:51:32;;;;;;;7.10;2.10;;;;;;;;;;5003157;28;20086;-82
2021/01/22 01:53:59;;;;;;;4.35;2.53;;;;;;;;;;5011859;28;20100;-83
2021/01/22 01:56:28;;;;;;;3.53;1.63;;;;;;;;;;4995911;28;20046;-82
2021/01/22 01:59:08;;;;;;;5.40;2.03;;;;;;;;;;5012203;28;20050;-82
2021/01/22 02:01:38;;;;;;;3.03;2.00;;;;;;;;;;4990413;28;20042;-82
2021/01/22 02:04:04;;;;;;;4.95;1.88;;;;;;;;;;4996481;28;20499;-82
2021/01/22 02:06:31;;;;;;;3.30;2.03;;;;;;;;;;5015225;28;20497;-82
2021/01/22 02:08:59;;;;;;;4.25;2.00;;;;;;;;;;5006581;28;20078;-82
2021/01/22 02:11:27;;;;;;;4.35;1.77;;;;;;;;;;5002088;28;20093;-82
2021/01/22 02:14:15;;;;;;;3.13;1.95;;;;;;;;;;5011279;28;20046;-81
2021/01/22 02:16:42;;;;;;;3.47;1.75;;;;;;;;;;5007365;28;20125;-82
2021/01/22 02:19:10;;;;;;;6.32;2.15;;;;;;;;;;5003538;28;20052;-82
2021/01/22 02:21:40;;;;;;;4.78;1.90;;;;;;;;;;5006351;28;20096;-83
2021/01/22 02:24:06;;;;;;;5.35;2.15;;;;;;;;;;5004630;28;20476;-82
2021/01/22 02:26:33;;;;;;;3.10;1.80;;;;;;;;;;5001721;28;20081;-82
2021/01/22 02:29:08;;;;;;;2.45;1.88;;;;;;;;;;5003852;28;20053;-82
2021/01/22 02:31:35;;;;;;;3.63;2.00;;;;;;;;;;5000715;28;20050;-82
2021/01/22 02:34:04;;;;;;;4.35;1.50;;;;;;;;;;4994865;28;20046;-81
2021/01/22 02:36:35;;;;;;;3.83;1.73;;;;;;;;;;5005959;28;20141;-82
2021/01/22 02:39:06;;;;;;;6.30;2.30;;;;;;;;;;5004605;28;20072;-82
2021/01/22 02:41:35;;;;;;;2.58;1.58;;;;;;;;;;4999007;28;20475;-82
2021/01/22 02:44:03;;;;;;;2.90;1.80;;;;;;;;;;4995116;28;20077;-82
2021/01/22 02:46:30;;;;;;;5.07;2.28;;;;;;;;;;4998208;28;20073;-82
2021/01/22 02:48:58;;;;;;;2.80;1.73;;;;;;;;;;5005426;28;20127;-82
2021/01/22 02:51:25;;;;;;;5.85;2.00;;;;;;;;;;4986136;28;20097;-81
2021/01/22 02:53:52;;;;;;;2.75;1.80;;;;;;;;;;4993828;28;20054;-82
2021/01/22 02:56:23;;;;;;;3.63;2.42;;;;;;;;;;5005549;28;20473;-82
2021/01/22 02:59:19;;;;;;;3.67;1.67;;;;;;;;;;5004800;28;20045;-83
2021/01/22 03:01:54;;;;;;;3.33;1.58;;;;;;;;;;4998643;28;20073;-82
2021/01/22 03:04:24;;;;;;;2.15;1.70;;;;;;;;;;4990311;28;20116;-83
2021/01/22 03:06:52;;;;;;;3.95;1.50;;;;;;;;;;5004160;28;20050;-82
2021/01/22 03:09:20;;;;;;;3.42;1.58;;;;;;;;;;5002287;28;20147;-82
2021/01/22 03:11:52;;;;;;;2.55;1.52;;;;;;;;;;5001718;28;20050;-83
2021/01/22 03:14:20;;;;;;;2.50;1.50;;;;;;;;;;4990823;28;20046;-82
2021/01/22 03:16:48;;;;;;;4.40;1.98;;;;;;;;;;5000478;28;20129;-82
2021/01/22 03:19:18;;;;;;;5.43;1.70;;;;;;;;;;5002141;28;20092;-81
2021/01/22 03:21:45;;;;;;;4.60;1.70;;;;;;;;;;4996268;28;20081;-81
2021/01/22 03:24:12;;;;;;;2.08;1.50;;;;;;;;;;5009974;28;20384;-81
2021/01/22 03:26:39;;;;;;;2.15;1.20;;;;;;;;;;5001640;28;20471;-81
2021/01/22 03:29:05;;;;;;;4.75;1.85;;;;;;;;;;5002245;28;20050;-82
2021/01/22 03:31:32;;;;;;;2.75;1.25;;;;;;;;;;4997610;28;20089;-82
2021/01/22 03:33:59;;;;;;;1.85;1.23;;;;;;;;;;5002131;28;20506;-81
2021/01/22 03:36:25;;;;;;;5.07;1.50;;;;;;;;;;5005408;28;20084;-81
2021/01/22 03:38:52;;;;;;;4.15;1.65;;;;;;;;;;5005237;28;20458;-81
2021/01/22 03:41:19;;;;;;;5.57;1.65;;;;;;;;;;5003514;28;20041;-81
2021/01/22 03:43:45;;;;;;;4.68;1.45;;;;;;;;;;4997306;28;20043;-79
2021/01/22 03:46:13;;;;;;;3.90;1.73;;;;;;;;;;5003716;28;20046;-78
2021/01/22 03:48:47;;;;;;;3.00;1.52;;;;;;;;;;5004715;28;20502;-79
2021/01/22 03:51:14;;;;;;;2.70;1.42;;;;;;;;;;5001984;28;20062;-79
2021/01/22 03:53:42;;;;;;;4.05;1.63;;;;;;;;;;5001637;28;20392;-78
2021/01/22 03:56:09;;;;;;;3.53;1.60;;;;;;;;;;5003477;28;20471;-79
2021/01/22 03:58:36;;;;;;;4.70;1.77;;;;;;;;;;5003560;28;20052;-79
2021/01/22 04:01:05;;;;;;;3.63;1.70;;;;;;;;;;4996282;28;20128;-79
2021/01/22 04:03:31;;;;;;;5.25;1.60;;;;;;;;;;4997193;28;20047;-79
2021/01/22 04:05:59;;;;;;;1.92;1.30;;;;;;;;;;4996846;28;20050;-79
2021/01/22 04:08:26;;;;;;;2.30;1.23;;;;;;;;;;4992824;28;20097;-80
2021/01/22 04:10:53;;;;;;;2.00;1.25;;;;;;;;;;5000778;28;20096;-79
2021/01/22 04:13:19;;;;;;;3.33;1.33;;;;;;;;;;4993254;28;20101;-79
2021/01/22 04:15:50;;;;;;;1.75;1.25;;;;;;;;;;5008424;28;20107;-79
2021/01/22 04:18:17;;;;;;;2.63;1.35;;;;;;;;;;5004629;28;20089;-80
2021/01/22 04:20:45;;;;;;;2.95;1.40;;;;;;;;;;5003508;28;20436;-79
2021/01/22 04:23:11;;;;;;;3.80;1.27;;;;;;;;;;5000775;28;20050;-79
2021/01/22 04:25:38;;;;;;;2.60;1.20;;;;;;;;;;4999598;28;20074;-79
2021/01/22 04:28:08;;;;;;;1.45;1.05;;;;;;;;;;4999088;28;20729;-79
2021/01/22 04:30:34;;;;;;;2.05;1.17;;;;;;;;;;4993008;28;20056;-79
2021/01/22 04:33:01;;;;;;;4.85;1.48;;;;;;;;;;5000692;28;20116;-79
2021/01/22 04:35:29;;;;;;;3.88;1.42;;;;;;;;;;5001251;28;20047;-80
2021/01/22 04:37:56;;;;;;;3.38;1.20;;;;;;;;;;5000959;28;20046;-79
2021/01/22 04:40:24;;;;;;;4.90;1.90;;;;;;;;;;5003863;28;20042;-79
2021/01/22 04:42:51;;;;;;;4.70;1.25;;;;;;;;;;5000550;28;20050;-78
2021/01/22 04:45:18;;;;;;;3.08;1.23;;;;;;;;;;4996642;28;20097;-79
2021/01/22 04:47:45;;;;;;;1.65;1.15;;;;;;;;;;5004941;28;20539;-79
2021/01/22 04:50:13;;;;;;;1.77;1.10;;;;;;;;;;5004633;28;20107;-78
2021/01/22 04:52:40;;;;;;;2.58;1.02;;;;;;;;;;5004368;28;20046;-79
2021/01/22 04:55:07;;;;;;;2.78;1.20;;;;;;;;;;5005336;28;20562;-77
2021/01/22 04:57:36;;;;;;;1.50;1.10;;;;;;;;;;5007686;28;20100;-78
2021/01/22 05:00:04;;;;;;;1.92;1.00;;;;;;;;;;4999287;28;20113;-80
2021/01/22 05:02:32;;;;;;;5.97;1.58;;;;;;;;;;5003530;28;20431;-80
2021/01/22 05:04:59;;;;;;;3.15;1.17;;;;;;;;;;5004016;28;20042;-80
2021/01/22 05:07:29;;;;;;;1.95;0.85;;;;;;;;;;5007123;28;20513;-79
2021/01/22 05:09:56;;;;;;;3.72;1.08;;;;;;;;;;5007520;28;20081;-80
2021/01/22 05:12:37;;;;;;;3.47;1.02;;;;;;;;;;5005461;28;20045;-80
2021/01/22 05:15:17;;;;;;;3.60;1.20;;;;;;;;;;5011908;28;20410;-79
2021/01/22 05:17:56;;;;;;;3.45;0.90;;;;;;;;;;5007115;28;20050;-81
2021/01/22 05:20:27;;;;;;;5.05;1.23;;;;;;;;;;4996888;28;20129;-79
2021/01/22 05:22:54;;;;;;;1.60;1.23;;;;;;;;;;5011535;28;20459;-81
2021/01/22 05:25:22;;;;;;;3.42;1.10;;;;;;;;;;5002809;28;20084;-80
2021/01/22 05:27:52;;;;;;;1.73;0.90;;;;;;;;;;5003679;28;20070;-78
2021/01/22 05:30:19;;;;;;;4.03;1.77;;;;;;;;;;5003805;28;20046;-79
2021/01/22 05:33:06;;;;;;;3.17;0.80;;;;;;;;;;5003837;28;20102;-80
2021/01/22 05:35:32;;;;;;;2.65;1.08;;;;;;;;;;5002522;28;20475;-79
2021/01/22 05:37:59;;;;;;;3.42;1.33;;;;;;;;;;5004491;28;20042;-79
2021/01/22 05:40:26;;;;;;;4.25;1.00;;;;;;;;;;5005603;28;20100;-79
2021/01/22 05:42:54;;;;;;;8.75;1.50;;;;;;;;;;5004900;28;20050;-79
2021/01/22 05:45:41;;;;;;;2.25;0.93;;;;;;;;;;4990171;28;20104;-79
2021/01/22 05:48:17;;;;;;;1.77;0.85;;;;;;;;;;4996960;28;20542;-78
2021/01/22 05:50:48;;;;;;;5.88;0.88;;;;;;;;;;5006691;28;20076;-78
2021/01/22 05:53:15;;;;;;;3.00;1.15;;;;;;;;;;4999385;28;20507;-78
2021/01/22 05:55:42;;;;;;;2.78;1.05;;;;;;;;;;5006729;28;20145;-78
2021/01/22 05:58:08;;;;;;;9.48;1.20;;;;;;;;;;5003715;28;20554;-78
2021/01/22 06:00:35;;;;;;;3.20;1.60;;;;;;;;;;4994699;28;20057;-78
2021/01/22 06:03:21;;;;;;;4.50;1.00;;;;;;;;;;5001730;28;20073;-79
2021/01/22 06:05:54;;;;;;;2.47;0.90;;;;;;;;;;5002803;28;20101;-78
2021/01/22 06:08:20;;;;;;;4.10;0.80;;;;;;;;;;4994162;28;20048;-78
2021/01/22 06:10:48;;;;;;;5.18;1.10;;;;;;;;;;5001703;28;20054;-79
2021/01/22 06:13:15;;;;;;;2.85;0.90;;;;;;;;;;5000490;28;20062;-79
2021/01/22 06:15:44;;;;;;;4.35;0.88;;;;;;;;;;5006220;28;20054;-78
2021/01/22 06:18:15;;;;;;;10.95;1.38;;;;;;;;;;5003798;28;20133;-78
2021/01/22 06:20:43;;;;;;;5.43;1.10;;;;;;;;;;5001249;28;20065;-78
2021/01/22 06:23:14;;;;;;;2.20;0.90;;;;;;;;;;5002706;28;20463;-79
2021/01/22 06:25:41;;;;;;;4.38;1.80;;;;;;;;;;5002719;28;20073;-79
2021/01/22 06:28:10;;;;;;;3.83;1.10;;;;;;;;;;5005807;28;20057;-79
2021/01/22 06:30:40;;;;;;;1.35;0.75;;;;;;;;;;5010177;28;20455;-79
2021/01/22 06:33:07;;;;;;;2.40;1.05;;;;;;;;;;4992765;28;20050;-79
2021/01/22 06:35:36;;;;;;;2.97;1.15;;;;;;;;;;5002415;28;20439;-78
2021/01/22 06:38:04;;;;;;;2.50;1.00;;;;;;;;;;5002774;28;20053;-78
2021/01/22 06:40:31;;;;;;;2.90;0.77;;;;;;;;;;5000774;28;20073;-78
2021/01/22 06:42:58;;;;;;;1.55;1.10;;;;;;;;;;5002098;28;20074;-78
2021/01/22 06:45:26;;;;;;;4.93;1.00;;;;;;;;;;4986926;28;20125;-78
2021/01/22 06:48:05;;;;;;;1.50;0.88;;;;;;;;;;5002533;28;20497;-77
2021/01/22 06:50:33;;;;;;;6.05;1.02;;;;;;;;;;5003523;28;20050;-78
2021/01/22 06:53:04;;;;;;;2.17;0.90;;;;;;;;;;5001016;28;20090;-78
2021/01/22 06:55:31;;;;;;;6.18;1.13;;;;;;;;;;5003983;28;20495;-78
2021/01/22 06:58:16;;;;;;;4.50;1.15;;;;;;;;;;5005198;28;20050;-78
2021/01/22 07:00:43;;;;;;;1.95;1.25;;;;;;;;;;5001171;28;20070;-78
2021/01/22 07:03:29;;;;;;;3.65;0.98;;;;;;;;;;5001946;28;20460;-79
2021/01/22 07:06:03;;;;;;;14.45;4.72;;;;;;;;;;5001103;28;20487;-79
2021/01/22 07:08:56;;;;;;;22.77;7.72;;;;;;;;;;5012619;28;20137;-79
2021/01/22 07:11:23;;;;;;;4.45;0.70;;;;;;;;;;4993042;28;20070;-78
2021/01/22 07:13:51;;;;;;;0.50;0.30;;;;;;;;;;5001109;28;20073;-80
2021/01/22 07:16:18;;;;;;;5.30;0.30;;;;;;;;;;4996167;28;20050;-79
2021/01/22 07:18:45;;;;;;;0.10;0.10;;;;;;;;;;5005288;28;20046;-79
2021/01/22 07:21:24;;;;;;;1.13;0.50;;;;;;;;;;4986175;28;20133;-80
2021/01/22 07:24:15;;;;;;;0.13;0.13;;;;;;;;;;5003745;28;20042;-80
2021/01/22 07:26:45;;;;;;;0.85;0.35;;;;;;;;;;4995984;28;20089;-83
2021/01/22 07:29:23;;;;;;;0.35;0.22;;;;;;;;;;5001722;28;20046;-82
2021/01/22 07:31:51;;;;;;;3.05;0.32;;;;;;;;;;4994345;28;20073;-82
2021/01/22 07:34:36;;;;;;;0.75;0.40;;;;;;;;;;5004462;28;20454;-82
2021/01/22 07:37:16;;;;;;;0.88;0.47;;;;;;;;;;5003963;28;20065;-81
2021/01/22 07:39:43;;;;;;;1.63;0.43;;;;;;;;;;5000273;28;20100;-82
2021/01/22 07:42:13;;;;;;;1.67;0.70;;;;;;;;;;5003200;28;20133;-82
2021/01/22 07:44:40;;;;;;;4.80;0.85;;;;;;;;;;4991873;28;20070;-85
2021/01/22 07:47:07;;;;;;;3.78;0.95;;;;;;;;;;5001244;28;20065;-80
2021/01/22 07:49:57;;;;;;;2.47;0.80;;;;;;;;;;5000440;28;20041;-82
2021/01/22 07:52:26;;;;;;;1.20;0.82;;;;;;;;;;4992603;28;20483;-82
2021/01/22 07:54:53;;;;;;;1.73;0.98;;;;;;;;;;5001151;28;20078;-81
2021/01/22 07:57:27;;;;;;;2.72;0.95;;;;;;;;;;5004666;28;20080;-83
2021/01/22 07:59:57;;;;;;;1.90;1.20;;;;;;;;;;5003229;28;20077;-84
2021/01/22 08:02:24;;;;;;;3.17;1.98;;;;;;;;;;4992243;28;20038;-83
2021/01/22 08:04:58;;;;;;;2.05;1.23;;;;;;;;;;4999193;28;20052;-84
2021/01/22 08:07:38;;;;;;;2.97;1.30;;;;;;;;;;4992343;28;20070;-83
2021/01/22 08:10:09;;;;;;;2.67;1.00;;;;;;;;;;5001122;28;20054;-84
2021/01/22 08:12:38;;;;;;;2.95;1.10;;;;;;;;;;5000405;28;20131;-84
2021/01/22 08:15:18;;;;;;;3.88;1.00;;;;;;;;;;5003197;28;20108;-84
2021/01/22 08:17:50;;;;;;;61.20;7.95;;;;;;;;;;5003065;28;20100;-82
2021/01/22 08:20:18;;;;;;;2.38;1.30;;;;;;;;;;5000854;28;20046;-82
2021/01/22 08:22:51;;;;;;;1.48;0.90;;;;;;;;;;4999426;28;20042;-81
2021/01/22 08:25:18;;;;;;;1.42;0.93;;;;;;;;;;5002572;28;20073;-80
2021/01/22 08:27:53;;;;;;;2.45;1.05;;;;;;;;;;5002316;28;20225;-79
2021/01/22 08:30:20;;;;;;;;;;;;;;;;;;4992924;28;20046;-82
2021/01/22 08:32:56;;;;;;;0.98;0.70;;;;;;;;;;4989683;28;20418;-84
2021/01/22 08:35:26;;;;;;;1.00;0.70;;;;;;;;;;4997120;28;20438;-82
2021/01/22 08:37:53;;;;;;;1.08;0.60;;;;;;;;;;5003135;28;20100;-84
2021/01/22 08:40:21;;;;;;;1.50;0.63;;;;;;;;;;4995172;28;20066;-81
2021/01/22 08:42:58;;;;;;;1432.63;179.05;;;;;;;;;;4995169;28;20093;-80
2021/01/22 08:45:25;;;;;;;53.80;5.90;;;;;;;;;;4991661;28;20042;-81
2021/01/22 08:47:53;;;;;;;49.40;5.78;;;;;;;;;;5000422;28;20062;-79
2021/01/22 08:50:20;;;;;;;5.00;1.23;;;;;;;;;;4999873;28;20046;-80
2021/01/22 08:53:17;;;;;;;760.30;89.75;;;;;;;;;;4999353;28;20484;-81
2021/01/22 08:55:44;;;;;;;3.85;1.67;;;;;;;;;;4973544;28;20563;-80
2021/01/22 08:58:12;;;;;;;2.28;1.00;;;;;;;;;;5004014;28;20446;-80
2021/01/22 09:00:39;;;;;;;2.53;1.33;;;;;;;;;;4993804;28;20047;-81
2021/01/22 09:03:20;;;;;;;6.15;1.83;;;;;;;;;;4992093;28;20041;-80
2021/01/22 09:05:55;;;;;;;3.35;1.63;;;;;;;;;;4998576;28;20128;-82
2021/01/22 09:08:23;;;;;;;2.53;1.73;;;;;;;;;;5002423;28;20519;-81
2021/01/22 09:10:50;;;;;;;2.58;1.80;;;;;;;;;;4999537;28;20053;-81
2021/01/22 09:13:21;;;;;;;5.35;1.75;;;;;;;;;;5002183;28;20116;-79
2021/01/22 09:15:49;;;;;;;3.00;1.50;;;;;;;;;;5006991;28;20053;-79
2021/01/22 09:18:24;;;;;;;6.00;1.70;;;;;;;;;;4999612;28;20054;-79
2021/01/22 09:21:12;;;;;;;3.40;1.60;;;;;;;;;;4999128;28;20042;-82
2021/01/22 09:23:40;;;;;;;2.60;1.63;;;;;;;;;;4996461;28;20038;-80
2021/01/22 09:26:15;;;;;;;6.28;1.73;;;;;;;;;;4994457;28;20100;-82
2021/01/22 09:28:55;;;;;;;5.03;1.60;;;;;;;;;;5001387;28;20121;-81
2021/01/22 09:31:23;;;;;;;3.40;1.20;;;;;;;;;;4997298;28;20074;-81
2021/01/22 09:33:51;;;;;;;6.43;1.70;;;;;;;;;;4995435;28;20054;-79
2021/01/22 09:36:18;;;;;;;3.60;1.38;;;;;;;;;;4996111;28;20073;-81
2021/01/22 09:38:44;;;;;;;2.88;1.65;;;;;;;;;;5007968;28;20128;-80
2021/01/22 09:41:13;;;;;;;2.40;1.75;;;;;;;;;;5002555;28;20483;-78
2021/01/22 09:43:40;;;;;;;3.20;1.70;;;;;;;;;;5000641;28;20046;-78
2021/01/22 09:46:07;;;;;;;2.70;1.20;;;;;;;;;;5005349;28;20129;-77
2021/01/22 09:48:33;;;;;;;8.70;2.00;;;;;;;;;;4993503;28;20074;-79
2021/01/22 09:51:02;;;;;;;4.95;1.63;;;;;;;;;;4997812;28;20107;-77
2021/01/22 09:53:29;;;;;;;3.83;1.90;;;;;;;;;;4998834;28;20395;-77
2021/01/22 09:55:56;;;;;;;5.68;1.70;;;;;;;;;;4996828;28;20105;-78
2021/01/22 09:58:23;;;;;;;2.95;1.75;;;;;;;;;;4999358;28;20049;-77
2021/01/22 10:00:49;;;;;;;3.15;1.70;;;;;;;;;;5003520;28;20088;-78
2021/01/22 10:03:17;;;;;;;7.22;2.05;;;;;;;;;;4988340;28;20400;-77
2021/01/22 10:05:45;;;;;;;5.40;1.70;;;;;;;;;;4997585;28;20100;-79
2021/01/22 10:08:20;;;;;;;3.80;2.08;;;;;;;;;;4998599;28;20650;-78
2021/01/22 10:10:49;;;;;;;;;;;;;;;;;;4993500;28;20604;-78
2021/01/22 10:13:15;;;;;;;3.35;1.60;;;;;;;;;;4981281;28;20428;-79
2021/01/22 10:15:49;;;;;;;6.32;2.20;;;;;;;;;;4987053;28;20388;-78
2021/01/22 10:18:17;;;;;;;5.45;2.33;;;;;;;;;;4996981;28;20050;-79
2021/01/22 10:20:48;;;;;;;2.90;1.92;;;;;;;;;;4987992;28;20052;-79
2021/01/22 10:23:16;;;;;;;4.72;2.30;;;;;;;;;;5001323;28;20131;-81
2021/01/22 10:25:44;;;;;;;427.70;50.92;;;;;;;;;;5002098;28;20057;-80
2021/01/22 10:28:12;;;;;;;534.53;64.47;;;;;;;;;;4998740;28;20050;-78
2021/01/22 10:30:39;;;;;;;6.00;2.80;;;;;;;;;;4991148;28;20046;-81
2021/01/22 10:33:06;;;;;;;6.15;2.40;;;;;;;;;;4990999;28;20190;-82
2021/01/22 10:35:34;;;;;;;10.27;2.70;;;;;;;;;;5003628;28;20050;-81
2021/01/22 10:38:14;;;;;;;8.75;3.28;;;;;;;;;;4993577;28;20132;-83
2021/01/22 10:40:46;;;;;;;5.38;2.08;;;;;;;;;;5000959;28;20480;-85
2021/01/22 10:43:13;;;;;;;9.05;3.20;;;;;;;;;;5010643;28;20046;-82
2021/01/22 10:45:40;;;;;;;5.03;2.33;;;;;;;;;;4993669;28;20105;-83
2021/01/22 10:48:07;;;;;;;5.22;2.17;;;;;;;;;;5003482;28;20070;-83
2021/01/22 10:50:36;;;;;;;4.80;2.50;;;;;;;;;;5004030;28;20108;-84
2021/01/22 10:53:03;;;;;;;9.88;4.60;;;;;;;;;;5005683;28;20650;-84
2021/01/22 10:55:29;;;;;;;9.85;2.72;;;;;;;;;;5004924;28;20834;-82
2021/01/22 10:57:56;;;;;;;8.05;2.55;;;;;;;;;;5005065;28;20086;-84
2021/01/22 11:00:23;;;;;;;4.30;2.35;;;;;;;;;;4993464;28;20133;-82
2021/01/22 11:02:53;;;;;;;8.32;3.33;;;;;;;;;;4998009;28;20069;-83
2021/01/22 11:05:21;;;;;;;5.70;2.22;;;;;;;;;;5001690;28;20046;-82
2021/01/22 11:07:48;;;;;;;6.20;2.80;;;;;;;;;;5001779;28;20048;-84
2021/01/22 11:10:15;;;;;;;7.53;3.05;;;;;;;;;;5001572;28;20054;-82
2021/01/22 11:12:48;;;;;;;6.30;2.85;;;;;;;;;;4996204;28;20082;-83
2021/01/22 11:15:16;;;;;;;7.25;3.22;;;;;;;;;;4997970;28;20385;-82
2021/01/22 11:17:45;;;;;;;5.57;2.92;;;;;;;;;;4997331;28;20482;-82
2021/01/22 11:20:12;;;;;;;8.20;3.58;;;;;;;;;;5000061;28;20046;-82
2021/01/22 11:22:51;;;;;;;6.50;3.00;;;;;;;;;;4999812;28;20483;-82
2021/01/22 11:25:20;;;;;;;9.85;3.13;;;;;;;;;;5002089;28;20043;-82
2021/01/22 11:27:49;;;;;;;9.55;3.13;;;;;;;;;;4996035;28;20480;-82
2021/01/22 11:30:34;;;;;;;6.15;3.28;;;;;;;;;;5003367;28;20054;-83
2021/01/22 11:33:05;;;;;;;9.35;3.47;;;;;;;;;;4997963;28;20053;-82
2021/01/22 11:35:43;;;;;;;8.10;3.38;;;;;;;;;;4995053;28;20086;-82
2021/01/22 11:38:12;;;;;;;6.13;3.17;;;;;;;;;;5003611;28;20081;-82
2021/01/22 11:40:38;;;;;;;5.82;2.58;;;;;;;;;;5004765;28;20235;-82
2021/01/22 11:43:06;;;;;;;8.10;3.40;;;;;;;;;;5000583;28;20060;-82
2021/01/22 11:45:32;;;;;;;5.82;3.05;;;;;;;;;;4994002;28;20058;-81
2021/01/22 11:48:11;;;;;;;7.20;3.45;;;;;;;;;;5000561;28;20545;-82
2021/01/22 11:50:48;;;;;;;10.23;3.38;;;;;;;;;;5004477;28;20049;-82
2021/01/22 11:53:25;;;;;;;7.78;3.03;;;;;;;;;;5000432;28;20128;-82
2021/01/22 11:56:05;;;;;;;7.65;3.38;;;;;;;;;;5003005;28;20126;-81
2021/01/22 11:58:35;;;;;;;8.68;3.33;;;;;;;;;;4987644;28;20117;-80
2021/01/22 12:01:04;;;;;;;5.88;2.88;;;;;;;;;;4999729;28;20038;-81
2021/01/22 12:03:30;;;;;;;8.73;3.38;;;;;;;;;;4987324;28;20829;-79
2021/01/22 12:05:58;;;;;;;6.00;2.60;;;;;;;;;;5013969;28;20700;-79
2021/01/22 12:08:25;;;;;;;12.13;3.47;;;;;;;;;;4979125;28;20475;-80
2021/01/22 12:10:53;;;;;;;4.35;2.83;;;;;;;;;;4999012;28;20086;-80
2021/01/22 12:13:20;;;;;;;6.78;3.45;;;;;;;;;;5002842;28;20073;-80
2021/01/22 12:15:47;;;;;;;9.45;3.75;;;;;;;;;;5005991;28;20137;-78
2021/01/22 12:18:14;;;;;;;13.73;3.35;;;;;;;;;;5002997;28;20050;-78
2021/01/22 12:20:41;;;;;;;10.90;3.50;;;;;;;;;;5002518;28;20049;-77
2021/01/22 12:23:17;;;;;;;7.82;3.55;;;;;;;;;;5002435;28;20076;-82
2021/01/22 12:25:46;;;;;;;16.55;3.22;;;;;;;;;;4999142;28;20464;-78
2021/01/22 12:28:16;;;;;;;7.10;3.35;;;;;;;;;;5001008;28;20491;-79
2021/01/22 12:30:46;;;;;;;13.10;3.60;;;;;;;;;;4998177;28;20079;-79
2021/01/22 12:33:25;;;;;;;7.82;3.20;;;;;;;;;;4988793;28;20149;-88
2021/01/22 12:35:52;;;;;;;8.25;3.25;;;;;;;;;;4996785;28;20097;-81
2021/01/22 12:38:20;;;;;;;8.77;3.47;;;;;;;;;;4992375;28;20070;-80
2021/01/22 12:40:46;;;;;;;6.75;3.03;;;;;;;;;;4999873;28;20038;-82
2021/01/22 12:43:13;;;;;;;25.45;4.68;;;;;;;;;;5007060;28;20081;-82
2021/01/22 12:45:40;;;;;;;10.60;4.15;;;;;;;;;;4992671;28;20443;-82
2021/01/22 12:48:07;;;;;;;9.68;3.35;;;;;;;;;;4999758;28;20049;-82
2021/01/22 12:50:34;;;;;;;6.78;3.38;;;;;;;;;;4999247;28;20046;-82
2021/01/22 12:53:01;;;;;;;9.18;3.55;;;;;;;;;;4999849;28;20050;-82
2021/01/22 12:55:28;;;;;;;6.35;3.53;;;;;;;;;;5003606;28;20578;-83
2021/01/22 12:57:56;;;;;;;9.05;3.22;;;;;;;;;;5004326;28;20081;-82
2021/01/22 13:00:22;;;;;;;8.57;2.80;;;;;;;;;;4991674;28;20100;-83
2021/01/22 13:02:49;;;;;;;6.45;3.13;;;;;;;;;;5000120;28;20462;-82
2021/01/22 13:05:21;;;;;;;7.25;3.40;;;;;;;;;;5006794;28;20051;-85
2021/01/22 13:07:48;;;;;;;8.80;3.05;;;;;;;;;;5003554;28;20486;-85
2021/01/22 13:10:18;;;;;;;7.32;2.60;;;;;;;;;;4993611;28;20085;-86
2021/01/22 13:12:53;;;;;;;5.70;2.88;;;;;;;;;;5001593;28;20052;-82
2021/01/22 13:15:22;;;;;;;9.65;3.42;;;;;;;;;;4994283;28;20471;-82
2021/01/22 13:17:49;;;;;;;8.25;3.08;;;;;;;;;;4994502;28;20050;-81
2021/01/22 13:20:16;;;;;;;7.97;3.08;;;;;;;;;;4996349;28;20054;-86
2021/01/22 13:22:43;;;;;;;13.10;3.00;;;;;;;;;;4994697;28;20050;-82
2021/01/22 13:25:09;;;;;;;5.10;2.95;;;;;;;;;;4991037;28;20484;-81
2021/01/22 13:27:37;;;;;;;9.60;2.95;;;;;;;;;;5003724;28;20125;-82
2021/01/22 13:30:10;;;;;;;15.55;3.25;;;;;;;;;;5001503;28;20117;-82
2021/01/22 13:32:53;;;;;;;7.72;3.33;;;;;;;;;;4982846;28;20523;-81
2021/01/22 13:35:21;;;;;;;9.57;3.15;;;;;;;;;;4994007;28;20070;-81
2021/01/22 13:37:51;;;;;;;6.43;2.75;;;;;;;;;;4989242;28;20057;-84
2021/01/22 13:40:27;;;;;;;7.25;3.58;;;;;;;;;;4993717;28;20062;-83
2021/01/22 13:43:02;;;;;;;7.25;3.20;;;;;;;;;;5005295;28;20078;-82
2021/01/22 13:45:38;;;;;;;6.03;2.95;;;;;;;;;;4991211;28;20042;-82
2021/01/22 13:48:15;;;;;;;10.43;2.85;;;;;;;;;;5020956;28;20445;-82
2021/01/22 13:50:48;;;;;;;10.40;3.70;;;;;;;;;;4995072;28;20058;-83
2021/01/22 13:53:16;;;;;;;5.85;3.20;;;;;;;;;;4985547;28;20228;-85
2021/01/22 13:55:47;;;;;;;9.30;3.03;;;;;;;;;;4994120;28;20452;-83
2021/01/22 13:58:15;;;;;;;10.23;3.63;;;;;;;;;;4998690;28;20055;-82
2021/01/22 14:00:43;;;;;;;4.95;3.03;;;;;;;;;;4996185;28;20070;-80
2021/01/22 14:03:10;;;;;;;14.63;3.63;;;;;;;;;;4993468;28;20106;-80
2021/01/22 14:05:37;;;;;;;10.25;2.88;;;;;;;;;;5001780;28;20038;-80
2021/01/22 14:08:04;;;;;;;6.78;2.88;;;;;;;;;;5002141;28;20084;-82
2021/01/22 14:10:30;;;;;;;10.45;3.03;;;;;;;;;;4998371;28;20074;-79
2021/01/22 14:12:57;;;;;;;10.20;3.33;;;;;;;;;;5001971;28;20085;-80
2021/01/22 14:15:27;;;;;;;14.70;3.40;;;;;;;;;;5001913;28;20168;-82
2021/01/22 14:17:53;;;;;;;8.60;3.05;;;;;;;;;;5002358;28;20050;-80
2021/01/22 14:20:20;;;;;;;6.07;3.65;;;;;;;;;;5009894;28;20483;-81
2021/01/22 14:22:47;;;;;;;6.78;3.17;;;;;;;;;;5005157;28;20117;-82
2021/01/22 14:25:14;;;;;;;7.70;3.10;;;;;;;;;;5009212;28;20084;-80
2021/01/22 14:27:41;;;;;;;5.40;2.90;;;;;;;;;;4995408;28;20101;-83
2021/01/22 14:30:08;;;;;;;9.82;3.42;;;;;;;;;;5002807;28;20454;-81
2021/01/22 14:32:35;;;;;;;6.18;3.30;;;;;;;;;;4992979;28;20174;-81
2021/01/22 14:35:02;;;;;;;9.88;3.25;;;;;;;;;;5000189;28;20475;-80
2021/01/22 14:37:29;;;;;;;11.65;3.78;;;;;;;;;;5007492;28;20073;-81
2021/01/22 14:39:56;;;;;;;6.20;3.20;;;;;;;;;;5002141;28;20046;-80
2021/01/22 14:42:22;;;;;;;5.70;3.13;;;;;;;;;;4992036;28;20101;-81
2021/01/22 14:44:54;;;;;;;8.18;4.95;;;;;;;;;;4995558;28;20101;-81
2021/01/22 14:47:23;;;;;;;5.38;3.08;;;;;;;;;;4988712;28;20121;-79
2021/01/22 14:49:52;;;;;;;11.23;3.65;;;;;;;;;;5000230;28;20046;-79
2021/01/22 14:52:22;;;;;;;7.00;3.17;;;;;;;;;;4984577;28;20042;-77
2021/01/22 14:54:49;;;;;;;10.75;3.88;;;;;;;;;;4992596;28;20050;-77
2021/01/22 14:57:16;;;;;;;13.43;3.50;;;;;;;;;;5002018;28;20137;-77